Time;durP1;ratioP1;P1;durP2;ratioP2;P2;SDS_P1;SDS_P2;PMS_P1;PMS_P2;Temp;Humidity;BMP_temperature;BMP_pressure;BME280_temperature;BME280_humidity;BME280_pressure;Samples;Min_cycle;Max_cycle;Signal;HPM_P1;HPM_P2
2021/12/18 00:02:23;;;;;;;58.53;26.27;;;8.70;99.90;;;;;;6307313;22;20110;-71
2021/12/18 00:04:51;;;;;;;58.30;26.55;;;8.70;99.90;;;;;;6333535;22;20027;-72
2021/12/18 00:07:17;;;;;;;64.90;28.05;;;8.70;99.90;;;;;;6333638;22;20010;-70
2021/12/18 00:09:43;;;;;;;61.40;27.73;;;8.80;99.90;;;;;;6332589;22;20003;-71
2021/12/18 00:12:09;;;;;;;58.53;28.20;;;8.80;99.90;;;;;;6334268;22;20300;-70
2021/12/18 00:14:35;;;;;;;63.53;28.75;;;8.90;99.90;;;;;;6305979;22;20006;-70
2021/12/18 00:17:02;;;;;;;64.60;29.20;;;8.80;99.90;;;;;;6334743;22;20002;-71
2021/12/18 00:19:27;;;;;;;63.90;27.42;;;8.80;99.90;;;;;;6333766;22;19999;-71
2021/12/18 00:21:54;;;;;;;65.45;29.17;;;8.80;99.90;;;;;;6335837;22;20493;-70
2021/12/18 00:24:20;;;;;;;60.85;25.80;;;8.90;99.90;;;;;;6308036;22;20368;-70
2021/12/18 00:26:46;;;;;;;;;;;8.90;99.90;;;;;;6335635;22;20077;-70
2021/12/18 00:29:12;;;;;;;54.35;25.67;;;8.90;99.90;;;;;;6334995;22;20278;-70
2021/12/18 00:31:37;;;;;;;54.90;25.92;;;8.90;99.90;;;;;;6331808;22;20034;-70
2021/12/18 00:34:03;;;;;;;52.58;25.08;;;8.90;99.90;;;;;;6334790;22;20002;-71
2021/12/18 00:36:29;;;;;;;58.42;26.25;;;8.90;99.90;;;;;;6334131;22;20406;-71
2021/12/18 00:38:54;;;;;;;50.13;24.88;;;9.00;99.90;;;;;;6331220;22;20081;-70
2021/12/18 00:41:46;;;;;;;54.70;26.50;;;9.00;99.90;;;;;;6332974;22;20077;-72
2021/12/18 00:44:16;;;;;;;56.55;26.85;;;8.90;99.90;;;;;;6330407;22;20085;-71
2021/12/18 00:46:44;;;;;;;54.78;26.25;;;9.00;99.90;;;;;;6331773;22;20019;-70
2021/12/18 00:49:14;;;;;;;49.65;24.63;;;9.00;99.90;;;;;;6334273;22;20005;-71
2021/12/18 00:51:39;;;;;;;52.65;27.55;;;9.10;99.90;;;;;;6330933;22;20048;-71
2021/12/18 00:54:05;;;;;;;53.58;26.50;;;9.00;99.90;;;;;;6331437;22;19999;-70
2021/12/18 00:56:32;;;;;;;54.35;26.15;;;9.00;99.90;;;;;;6330992;22;20038;-69
2021/12/18 00:58:58;;;;;;;46.95;24.00;;;9.10;99.90;;;;;;6330810;22;20454;-70
2021/12/18 01:01:26;;;;;;;45.25;24.60;;;9.00;99.90;;;;;;6307435;22;20014;-71
2021/12/18 01:03:52;;;;;;;44.22;24.05;;;9.00;99.90;;;;;;6332461;22;20084;-70
2021/12/18 01:06:19;;;;;;;41.78;22.65;;;9.00;99.90;;;;;;6329199;22;19995;-72
2021/12/18 01:08:46;;;;;;;41.60;24.25;;;9.00;99.90;;;;;;6332076;22;20082;-71
2021/12/18 01:16:44;;;;;;;37.92;20.80;;;8.90;99.90;;;;;;6331966;22;20017;-71
2021/12/18 01:24:39;;;;;;;31.60;19.50;;;8.80;99.90;;;;;;6331568;22;20756;-71
2021/12/18 01:27:05;;;;;;;32.13;19.52;;;8.80;99.90;;;;;;6330459;22;20085;-69
2021/12/18 01:29:31;;;;;;;33.08;19.23;;;8.80;99.90;;;;;;6332894;22;20070;-69
2021/12/18 01:31:56;;;;;;;29.98;18.55;;;8.80;99.90;;;;;;6334247;22;20060;-70
2021/12/18 01:34:22;;;;;;;29.00;18.10;;;8.80;99.90;;;;;;6331223;22;20350;-71
2021/12/18 01:36:48;;;;;;;29.75;18.35;;;8.90;99.90;;;;;;6335745;22;19999;-69
2021/12/18 01:39:13;;;;;;;29.70;18.98;;;8.90;99.90;;;;;;6334349;22;20377;-69
2021/12/18 01:42:01;;;;;;;26.70;17.80;;;9.00;99.90;;;;;;6332796;22;20360;-70
2021/12/18 01:52:53;;;;;;;;;;;9.00;99.90;;;;;;6331121;22;20049;-70
2021/12/18 01:55:28;;;;;;;31.42;19.58;;;9.00;99.90;;;;;;6332471;22;19903;-71
2021/12/18 01:57:53;;;;;;;29.30;18.92;;;8.90;99.90;;;;;;6333082;22;20069;-70
2021/12/18 02:00:34;;;;;;;28.25;18.98;;;8.90;99.90;;;;;;6330708;22;20029;-73
2021/12/18 02:03:00;;;;;;;28.25;18.05;;;9.00;99.90;;;;;;6331415;22;20044;-70
2021/12/18 02:05:26;;;;;;;28.73;18.55;;;9.10;99.90;;;;;;6330996;22;20136;-71
2021/12/18 02:07:52;;;;;;;31.15;18.60;;;9.00;99.90;;;;;;6332973;22;20057;-71
2021/12/18 02:10:30;;;;;;;27.67;18.42;;;9.00;99.90;;;;;;6334037;22;20083;-70
2021/12/18 02:13:19;;;;;;;28.80;19.02;;;9.10;99.90;;;;;;6330605;22;20034;-69
2021/12/18 02:21:17;;;;;;;28.30;19.15;;;9.10;99.90;;;;;;6333652;22;20010;-70
2021/12/18 02:23:44;;;;;;;28.85;19.38;;;9.00;99.90;;;;;;6333438;22;20017;-69
2021/12/18 02:26:10;;;;;;;27.15;18.90;;;9.10;99.90;;;;;;6332644;22;19995;-71
2021/12/18 02:28:36;;;;;;;30.15;20.15;;;9.10;99.90;;;;;;6331656;22;20054;-71
2021/12/18 02:31:03;;;;;;;32.17;19.40;;;9.10;99.90;;;;;;6334366;22;19995;-70
2021/12/18 02:33:29;;;;;;;29.85;19.40;;;9.10;99.90;;;;;;6333477;22;20005;-70
2021/12/18 02:35:58;;;;;;;30.63;19.90;;;9.10;99.90;;;;;;6333060;22;20394;-70
2021/12/18 02:43:51;;;;;;;28.83;19.40;;;9.10;99.90;;;;;;6335103;22;20422;-72
2021/12/18 02:46:21;;;;;;;31.00;20.20;;;9.00;99.90;;;;;;6332963;22;20069;-70
2021/12/18 02:48:49;;;;;;;27.77;19.02;;;8.90;99.90;;;;;;6305931;22;20088;-70
2021/12/18 02:51:17;;;;;;;30.45;19.40;;;9.00;99.90;;;;;;6334451;22;19991;-70
2021/12/18 02:53:46;;;;;;;27.65;19.05;;;9.10;99.90;;;;;;6333052;22;20631;-70
2021/12/18 02:56:12;;;;;;;26.25;18.17;;;9.00;99.90;;;;;;6334298;22;20512;-70
2021/12/18 02:58:39;;;;;;;;;;;9.10;99.90;;;;;;6333237;22;20472;-70
2021/12/18 03:01:07;;;;;;;26.17;17.35;;;9.00;99.90;;;;;;6333429;22;20284;-70
2021/12/18 03:03:36;;;;;;;27.75;18.40;;;9.00;99.90;;;;;;6331143;22;20059;-70
2021/12/18 03:08:54;;;;;;;26.30;17.25;;;9.10;99.90;;;;;;6333691;22;20007;-70
2021/12/18 03:24:54;;;;;;;29.40;18.80;;;9.10;99.90;;;;;;6333117;22;20019;-71
2021/12/18 03:27:20;;;;;;;31.80;18.48;;;9.10;99.90;;;;;;6335808;22;20081;-70
2021/12/18 03:29:46;;;;;;;38.53;20.55;;;9.10;99.90;;;;;;6336356;22;20003;-71
2021/12/18 03:32:12;;;;;;;31.83;19.50;;;9.10;99.90;;;;;;6334902;22;20006;-71
2021/12/18 03:34:38;;;;;;;35.78;20.30;;;9.00;99.90;;;;;;6332957;22;19991;-71
2021/12/18 03:37:05;;;;;;;36.63;21.45;;;9.00;99.90;;;;;;6333564;22;20014;-69
2021/12/18 03:39:31;;;;;;;38.88;21.65;;;9.10;99.90;;;;;;6336362;22;20044;-70
2021/12/18 03:41:57;;;;;;;43.80;22.55;;;9.10;99.90;;;;;;6336011;22;20384;-70
2021/12/18 03:44:23;;;;;;;37.90;20.67;;;9.00;99.90;;;;;;6308043;22;19999;-71
2021/12/18 03:46:50;;;;;;;37.55;21.80;;;9.00;99.90;;;;;;6333601;22;20491;-70
2021/12/18 03:49:16;;;;;;;39.85;20.60;;;9.00;99.90;;;;;;6336388;22;20504;-71
2021/12/18 03:51:41;;;;;;;;;;;9.10;99.90;;;;;;6332637;22;19995;-70
2021/12/18 03:54:07;;;;;;;36.78;18.77;;;9.10;99.90;;;;;;6334923;22;19902;-71
2021/12/18 03:56:33;;;;;;;40.38;21.40;;;9.20;99.90;;;;;;6302011;22;20335;-71
2021/12/18 03:58:59;;;;;;;41.30;21.25;;;9.10;99.90;;;;;;6304029;22;19999;-71
2021/12/18 04:01:25;;;;;;;44.00;21.88;;;9.10;99.90;;;;;;6302550;22;20466;-70
2021/12/18 04:03:51;;;;;;;40.55;22.10;;;9.10;99.90;;;;;;6303150;22;20004;-69
2021/12/18 04:06:17;;;;;;;44.65;23.02;;;9.10;99.90;;;;;;6300400;22;20423;-71
2021/12/18 04:08:43;;;;;;;46.85;23.55;;;9.00;99.90;;;;;;6303505;22;20003;-72
2021/12/18 04:11:08;;;;;;;48.75;25.23;;;9.10;99.90;;;;;;6304413;22;20005;-71
2021/12/18 04:13:34;;;;;;;50.22;26.83;;;9.00;99.90;;;;;;6303730;22;20735;-70
2021/12/18 04:16:00;;;;;;;47.42;25.92;;;9.10;99.90;;;;;;6300882;22;20003;-70
2021/12/18 04:18:26;;;;;;;46.85;27.25;;;9.10;99.90;;;;;;6302568;22;20070;-70
2021/12/18 04:20:51;;;;;;;45.85;25.92;;;9.10;99.90;;;;;;6304936;22;20011;-70
2021/12/18 04:23:17;;;;;;;43.33;25.02;;;9.20;99.90;;;;;;6303983;22;20273;-70
2021/12/18 04:25:43;;;;;;;41.03;24.88;;;9.30;99.90;;;;;;6300694;22;20003;-70
2021/12/18 04:28:09;;;;;;;41.90;25.60;;;9.30;99.90;;;;;;6302047;22;20090;-70
2021/12/18 04:30:35;;;;;;;42.85;25.30;;;9.30;99.90;;;;;;6304533;22;19999;-69
2021/12/18 04:33:01;;;;;;;41.35;25.55;;;9.30;99.90;;;;;;6302407;22;20083;-69
2021/12/18 04:35:27;;;;;;;44.67;26.38;;;9.30;99.90;;;;;;6308042;22;20442;-70
2021/12/18 04:37:53;;;;;;;41.78;25.95;;;9.30;99.90;;;;;;6305230;22;20003;-69
2021/12/18 04:40:24;;;;;;;40.40;25.23;;;9.40;99.90;;;;;;6304782;22;20099;-71
2021/12/18 04:42:50;;;;;;;40.70;24.52;;;9.40;99.90;;;;;;6303456;22;20042;-70
2021/12/18 04:45:16;;;;;;;43.08;25.75;;;9.10;99.90;;;;;;6298916;22;19996;-71
2021/12/18 04:47:41;;;;;;;39.17;25.33;;;9.00;99.90;;;;;;6301276;22;20003;-71
2021/12/18 04:50:07;;;;;;;39.60;25.42;;;8.90;99.90;;;;;;6300139;22;20004;-71
2021/12/18 04:52:33;;;;;;;39.60;24.70;;;9.00;99.90;;;;;;6302468;22;19999;-70
2021/12/18 04:55:03;;;;;;;38.92;24.15;;;9.10;99.90;;;;;;6304028;22;20100;-71
2021/12/18 04:57:28;;;;;;;39.25;24.98;;;9.10;99.90;;;;;;6328707;22;20015;-71
2021/12/18 04:59:54;;;;;;;39.58;22.77;;;9.10;99.90;;;;;;6334341;22;19999;-70
2021/12/18 05:02:24;;;;;;;;;;;9.20;99.90;;;;;;6337012;22;19995;-70
2021/12/18 05:04:51;;;;;;;42.25;23.35;;;9.20;99.90;;;;;;6308485;22;20009;-70
2021/12/18 05:07:17;;;;;;;36.78;20.65;;;9.10;99.90;;;;;;6333377;22;20430;-70
2021/12/18 05:09:42;;;;;;;33.83;21.23;;;9.10;99.90;;;;;;6330758;22;19999;-70
2021/12/18 05:12:09;;;;;;;34.72;21.88;;;9.10;99.90;;;;;;6334886;22;19999;-71
2021/12/18 05:14:35;;;;;;;34.33;21.70;;;9.10;99.90;;;;;;6335190;22;20015;-70
2021/12/18 05:17:01;;;;;;;33.10;20.48;;;9.20;99.90;;;;;;6333358;22;20014;-69
2021/12/18 05:19:26;;;;;;;33.65;21.20;;;9.20;99.90;;;;;;6333196;22;19998;-70
2021/12/18 05:21:52;;;;;;;31.00;20.35;;;9.30;99.90;;;;;;6335318;22;20002;-72
2021/12/18 05:24:18;;;;;;;29.20;18.98;;;9.30;99.90;;;;;;6333421;22;20003;-72
2021/12/18 05:26:44;;;;;;;27.73;17.20;;;9.30;99.90;;;;;;6331542;22;19999;-69
2021/12/18 05:29:09;;;;;;;28.75;17.83;;;9.30;99.90;;;;;;6304928;22;20353;-71
2021/12/18 05:31:35;;;;;;;30.77;19.58;;;9.30;99.90;;;;;;6333816;22;20042;-71
2021/12/18 05:34:03;;;;;;;32.08;20.38;;;9.20;99.90;;;;;;6332311;22;19998;-68
2021/12/18 05:39:07;;;;;;;31.70;19.50;;;9.20;99.90;;;;;;6335187;22;20385;-70
2021/12/18 05:41:33;;;;;;;39.58;21.27;;;9.30;99.90;;;;;;6333273;22;20102;-71
2021/12/18 05:43:59;;;;;;;37.45;23.20;;;9.30;99.90;;;;;;6336572;22;20052;-70
2021/12/18 05:46:26;;;;;;;40.25;23.80;;;9.30;99.90;;;;;;6333360;22;20422;-70
2021/12/18 05:48:52;;;;;;;41.35;24.38;;;9.30;99.90;;;;;;6335647;22;20007;-71
2021/12/18 05:51:17;;;;;;;41.17;24.20;;;9.40;99.90;;;;;;6336400;22;20481;-71
2021/12/18 05:53:44;;;;;;;37.40;23.15;;;9.20;99.90;;;;;;6334436;22;20070;-70
2021/12/18 05:56:09;;;;;;;;;;;9.20;99.90;;;;;;6333622;22;20011;-69
2021/12/18 05:58:35;;;;;;;40.03;22.40;;;9.20;99.90;;;;;;6331954;22;19909;-70
2021/12/18 06:01:01;;;;;;;37.92;22.80;;;9.30;99.90;;;;;;6332778;22;20089;-70
2021/12/18 06:03:27;;;;;;;37.90;23.25;;;9.20;99.90;;;;;;6334619;22;20003;-70
2021/12/18 06:05:53;;;;;;;39.08;23.48;;;9.30;99.90;;;;;;6331981;22;20445;-70
2021/12/18 06:08:19;;;;;;;39.35;22.85;;;9.30;99.90;;;;;;6333553;22;20030;-70
2021/12/18 06:10:44;;;;;;;37.13;21.42;;;9.20;99.90;;;;;;6307614;22;20006;-71
2021/12/18 06:13:10;;;;;;;39.40;23.30;;;9.30;99.90;;;;;;6333411;22;20052;-71
2021/12/18 06:15:39;;;;;;;42.05;23.80;;;9.30;99.90;;;;;;6334553;22;20003;-70
2021/12/18 06:18:05;;;;;;;40.40;23.70;;;9.20;99.90;;;;;;6334894;22;19998;-70
2021/12/18 06:20:31;;;;;;;40.17;22.85;;;9.30;99.90;;;;;;6306945;22;20087;-69
2021/12/18 06:22:58;;;;;;;39.92;22.98;;;9.30;99.90;;;;;;6335004;22;20520;-71
2021/12/18 06:25:24;;;;;;;40.88;24.50;;;9.40;99.90;;;;;;6333633;22;20431;-70
2021/12/18 06:27:49;;;;;;;;;;;9.40;99.90;;;;;;6334448;22;20081;-71
2021/12/18 06:30:18;;;;;;;52.70;23.73;;;9.40;99.90;;;;;;6335359;22;20373;-71
2021/12/18 06:32:43;;;;;;;47.92;25.65;;;9.40;99.90;;;;;;6308471;22;20323;-70
2021/12/18 06:35:10;;;;;;;46.47;23.85;;;9.30;99.90;;;;;;6306497;22;20009;-69
2021/12/18 06:37:35;;;;;;;;;;;9.40;99.90;;;;;;6334504;22;20813;-70
2021/12/18 06:40:02;;;;;;;48.97;24.40;;;9.40;99.90;;;;;;6333927;22;19934;-72
2021/12/18 06:42:28;;;;;;;44.83;25.45;;;9.30;99.90;;;;;;6307753;22;20298;-70
2021/12/18 06:44:53;;;;;;;51.92;24.98;;;9.30;99.90;;;;;;6305192;22;19999;-69
2021/12/18 06:47:19;;;;;;;44.83;25.08;;;9.30;99.90;;;;;;6332939;22;20021;-70
2021/12/18 06:49:47;;;;;;;48.03;24.40;;;9.40;99.90;;;;;;6334063;22;20024;-70
2021/12/18 06:52:13;;;;;;;48.83;25.63;;;9.60;99.90;;;;;;6309221;22;20062;-71
2021/12/18 06:54:39;;;;;;;46.28;23.92;;;9.60;99.90;;;;;;6337519;22;20006;-70
2021/12/18 06:57:04;;;;;;;41.28;23.35;;;9.60;99.90;;;;;;6337849;22;20007;-70
2021/12/18 06:59:30;;;;;;;43.35;25.00;;;9.60;99.90;;;;;;6332924;22;20062;-69
2021/12/18 07:01:56;;;;;;;56.67;24.30;;;9.50;99.90;;;;;;6335450;22;19995;-70
2021/12/18 07:04:25;;;;;;;46.92;24.90;;;9.50;99.90;;;;;;6336287;22;20007;-70
2021/12/18 07:06:52;;;;;;;46.63;24.88;;;9.40;99.90;;;;;;6306758;22;20070;-70
2021/12/18 07:09:19;;;;;;;46.20;23.85;;;9.40;99.90;;;;;;6336736;22;20363;-69
2021/12/18 07:11:44;;;;;;;46.30;24.00;;;9.30;99.90;;;;;;6334489;22;20128;-69
2021/12/18 07:14:11;;;;;;;44.88;24.83;;;9.30;99.90;;;;;;6307997;22;20070;-70
2021/12/18 07:16:36;;;;;;;46.45;24.48;;;9.30;99.90;;;;;;6303278;22;20018;-69
2021/12/18 07:19:02;;;;;;;48.50;25.05;;;9.30;99.90;;;;;;6329638;22;20003;-71
2021/12/18 07:21:28;;;;;;;56.40;26.65;;;9.40;99.90;;;;;;6331755;22;19994;-72
2021/12/18 07:23:53;;;;;;;49.38;25.85;;;9.40;99.90;;;;;;6333474;22;20094;-72
2021/12/18 07:26:19;;;;;;;49.83;25.20;;;9.40;99.90;;;;;;6331170;22;20003;-71
2021/12/18 07:28:45;;;;;;;52.38;25.77;;;9.20;99.90;;;;;;6335916;22;20007;-69
2021/12/18 07:31:11;;;;;;;47.13;25.23;;;9.20;99.90;;;;;;6333582;22;19999;-70
2021/12/18 07:33:39;;;;;;;49.53;25.38;;;9.30;99.90;;;;;;6303470;22;20009;-70
2021/12/18 07:36:07;;;;;;;46.47;25.25;;;9.30;99.90;;;;;;6333002;22;20343;-71
2021/12/18 07:38:34;;;;;;;47.03;24.77;;;9.30;99.90;;;;;;6336798;22;20027;-70
2021/12/18 07:41:00;;;;;;;47.03;25.80;;;9.50;99.90;;;;;;6309049;22;20029;-69
2021/12/18 07:43:25;;;;;;;42.33;22.17;;;9.40;99.90;;;;;;6339902;22;20003;-69
2021/12/18 07:45:51;;;;;;;46.13;23.88;;;9.40;99.90;;;;;;6334914;22;19999;-69
2021/12/18 07:48:17;;;;;;;46.92;24.45;;;9.50;99.90;;;;;;6336631;22;20002;-68
2021/12/18 07:50:43;;;;;;;47.03;24.92;;;9.40;99.90;;;;;;6336045;22;20006;-69
2021/12/18 07:53:09;;;;;;;52.53;26.08;;;9.30;99.90;;;;;;6304538;22;20038;-69
2021/12/18 07:55:35;;;;;;;47.25;25.20;;;9.20;99.90;;;;;;6337949;22;20003;-70
2021/12/18 07:58:01;;;;;;;46.67;24.05;;;9.20;99.90;;;;;;6334688;22;20018;-70
2021/12/18 08:00:26;;;;;;;49.72;26.17;;;9.30;99.90;;;;;;6306715;22;20450;-69
2021/12/18 08:02:52;;;;;;;50.03;25.73;;;9.40;99.90;;;;;;6311558;22;20003;-74
2021/12/18 08:05:18;;;;;;;45.88;24.35;;;9.40;99.90;;;;;;6339108;22;19999;-73
2021/12/18 08:07:45;;;;;;;43.67;23.75;;;9.20;99.90;;;;;;6337652;22;20064;-71
2021/12/18 08:10:11;;;;;;;45.35;23.20;;;9.20;99.90;;;;;;6337706;22;20013;-71
2021/12/18 08:12:37;;;;;;;;;;;9.20;99.90;;;;;;6308649;22;20002;-71
2021/12/18 08:15:04;;;;;;;36.65;19.55;;;9.20;99.90;;;;;;6336803;22;19899;-72
2021/12/18 08:17:30;;;;;;;34.72;19.00;;;9.20;99.90;;;;;;6308418;22;20010;-70
2021/12/18 08:19:55;;;;;;;37.15;20.92;;;9.20;99.90;;;;;;6335171;22;20007;-71
2021/12/18 08:22:21;;;;;;;34.20;20.77;;;9.20;99.90;;;;;;6283250;22;20084;-71
2021/12/18 08:24:47;;;;;;;32.38;20.02;;;9.30;99.90;;;;;;6310680;22;19995;-70
2021/12/18 08:27:32;;;;;;;36.15;22.30;;;9.20;99.90;;;;;;6310302;22;20010;-70
2021/12/18 08:29:58;;;;;;;35.22;19.73;;;9.20;99.90;;;;;;6337039;22;20081;-71
2021/12/18 08:32:23;;;;;;;38.70;21.90;;;9.30;99.90;;;;;;6335633;22;20438;-71
2021/12/18 08:34:49;;;;;;;40.50;22.70;;;9.30;99.90;;;;;;6336071;22;19995;-71
2021/12/18 08:37:15;;;;;;;41.85;23.35;;;9.30;99.90;;;;;;6336312;22;20216;-71
2021/12/18 08:39:41;;;;;;;39.25;23.23;;;9.40;99.90;;;;;;6335842;22;19995;-71
2021/12/18 08:42:07;;;;;;;38.50;21.42;;;9.30;99.90;;;;;;6337059;22;20070;-72
2021/12/18 08:44:33;;;;;;;;;;;9.40;99.90;;;;;;6336615;22;19995;-70
2021/12/18 08:47:00;;;;;;;38.17;22.45;;;9.40;99.90;;;;;;6336048;22;20330;-71
2021/12/18 08:49:27;;;;;;;42.65;22.77;;;9.40;99.90;;;;;;6337505;22;20029;-70
2021/12/18 08:51:54;;;;;;;42.05;23.00;;;9.40;99.90;;;;;;6283569;22;20029;-71
2021/12/18 08:54:24;;;;;;;39.40;21.83;;;9.50;99.90;;;;;;6338993;22;20021;-73
2021/12/18 08:56:50;;;;;;;38.88;22.08;;;9.50;99.90;;;;;;6335266;22;20021;-73
2021/12/18 08:59:15;;;;;;;40.75;21.25;;;9.50;99.90;;;;;;6335919;22;20002;-71
2021/12/18 09:01:41;;;;;;;43.55;21.65;;;9.50;99.90;;;;;;6308334;22;19995;-70
2021/12/18 09:04:07;;;;;;;40.10;22.58;;;9.40;99.90;;;;;;6336914;22;19995;-71
2021/12/18 09:06:33;;;;;;;41.80;22.63;;;9.30;99.90;;;;;;6335917;22;20470;-71
2021/12/18 09:08:59;;;;;;;;;;;9.30;99.90;;;;;;6337144;22;20033;-73
2021/12/18 09:11:25;;;;;;;46.13;22.92;;;9.40;99.90;;;;;;6311863;22;19898;-70
2021/12/18 09:13:51;;;;;;;44.80;23.27;;;9.30;99.90;;;;;;6342003;22;19998;-71
2021/12/18 09:16:19;;;;;;;41.70;22.40;;;9.20;99.90;;;;;;6318589;22;19999;-69
2021/12/18 09:18:45;;;;;;;43.28;23.15;;;9.20;99.90;;;;;;6319032;22;20018;-71
2021/12/18 09:21:10;;;;;;;42.15;23.08;;;9.10;99.90;;;;;;6349832;22;19998;-70
2021/12/18 09:23:36;;;;;;;36.60;20.38;;;9.10;99.90;;;;;;6351280;22;20041;-71
2021/12/18 09:26:02;;;;;;;34.90;19.73;;;9.10;99.90;;;;;;6341929;22;20026;-70
2021/12/18 09:28:28;;;;;;;;;;;9.20;99.90;;;;;;6352130;22;20013;-76
2021/12/18 09:30:53;;;;;;;35.42;20.33;;;9.20;99.90;;;;;;6347420;22;20303;-71
2021/12/18 09:33:20;;;;;;;34.47;17.67;;;9.30;99.90;;;;;;6345680;22;20326;-72
2021/12/18 09:35:46;;;;;;;41.90;21.10;;;9.30;99.90;;;;;;6350461;22;20008;-70
2021/12/18 09:38:12;;;;;;;34.78;19.27;;;9.30;99.90;;;;;;6351840;22;20087;-71
2021/12/18 09:40:38;;;;;;;37.85;21.02;;;9.40;99.90;;;;;;6349496;22;20030;-71
2021/12/18 09:43:04;;;;;;;37.65;21.75;;;9.60;99.90;;;;;;6323375;22;19999;-72
2021/12/18 09:45:30;;;;;;;;;;;9.60;99.90;;;;;;6340913;22;20005;-71
2021/12/18 09:47:56;;;;;;;38.17;21.33;;;9.60;99.90;;;;;;6312460;22;19913;-71
2021/12/18 09:50:25;;;;;;;48.72;22.10;;;9.70;99.90;;;;;;6342047;22;19995;-72
2021/12/18 09:52:52;;;;;;;39.97;22.25;;;9.60;99.90;;;;;;6313709;22;20005;-70
2021/12/18 09:55:18;;;;;;;52.00;23.08;;;9.60;99.90;;;;;;6340975;22;20029;-73
2021/12/18 09:57:45;;;;;;;42.17;23.45;;;9.70;99.90;;;;;;6341556;22;20037;-70
2021/12/18 10:00:17;;;;;;;44.95;23.50;;;9.50;99.90;;;;;;6339468;22;19999;-72
2021/12/18 10:02:43;;;;;;;43.13;23.98;;;9.60;99.90;;;;;;6341843;22;20464;-70
2021/12/18 10:05:29;;;;;;;38.55;22.08;;;9.70;99.90;;;;;;6340486;22;19999;-72
2021/12/18 10:08:14;;;;;;;45.72;24.70;;;9.60;99.90;;;;;;6342678;22;20007;-72
2021/12/18 10:11:05;;;;;;;44.67;25.05;;;9.60;99.90;;;;;;6343356;22;20009;-71
2021/12/18 10:13:54;;;;;;;42.45;24.48;;;9.60;99.90;;;;;;6342359;22;20003;-70
2021/12/18 10:16:21;;;;;;;44.63;24.27;;;9.70;99.90;;;;;;6342744;22;20002;-70
2021/12/18 10:18:47;;;;;;;43.08;23.65;;;9.60;99.90;;;;;;6341339;22;19999;-74
2021/12/18 10:21:17;;;;;;;44.17;23.52;;;9.60;99.90;;;;;;6343883;22;20052;-73
2021/12/18 10:23:44;;;;;;;47.45;25.35;;;9.60;99.90;;;;;;6341398;22;20113;-70
2021/12/18 10:26:31;;;;;;;49.67;26.02;;;9.70;99.90;;;;;;6340952;22;20002;-70
2021/12/18 10:28:57;;;;;;;42.70;24.50;;;9.70;99.90;;;;;;6346392;22;20013;-69
2021/12/18 10:31:38;;;;;;;;;;;9.70;99.90;;;;;;6347319;22;20069;-71
2021/12/18 10:34:22;;;;;;;48.47;26.30;;;9.80;99.90;;;;;;6343380;22;19933;-70
2021/12/18 10:37:19;;;;;;;47.13;26.60;;;9.80;99.90;;;;;;6340979;22;19999;-70
2021/12/18 10:39:51;;;;;;;49.67;27.98;;;9.80;99.90;;;;;;6312247;22;20078;-70
2021/12/18 10:42:22;;;;;;;48.40;27.85;;;9.80;99.90;;;;;;6341001;22;19995;-71
2021/12/18 10:45:00;;;;;;;50.83;28.20;;;9.90;99.90;;;;;;6338400;22;19999;-71
2021/12/18 10:47:40;;;;;;;51.55;28.48;;;9.90;99.90;;;;;;6341262;22;20003;-71
2021/12/18 10:50:21;;;;;;;55.72;28.90;;;9.80;99.90;;;;;;6342807;22;20010;-72
2021/12/18 10:52:55;;;;;;;46.80;26.17;;;9.90;99.90;;;;;;6340228;22;20002;-71
2021/12/18 10:55:30;;;;;;;48.63;25.75;;;9.90;99.90;;;;;;6311817;22;20003;-70
2021/12/18 10:57:56;;;;;;;49.10;28.52;;;10.00;99.90;;;;;;6339423;22;20019;-70
2021/12/18 11:00:43;;;;;;;50.70;29.30;;;9.90;99.90;;;;;;6336207;22;20077;-70
2021/12/18 11:03:16;;;;;;;49.15;28.92;;;9.90;99.90;;;;;;6337030;22;20098;-71
2021/12/18 11:05:42;;;;;;;55.67;29.77;;;9.90;99.90;;;;;;6336841;22;20002;-70
2021/12/18 11:08:11;;;;;;;50.63;28.77;;;10.00;99.90;;;;;;6338512;22;20378;-72
2021/12/18 11:10:54;;;;;;;54.03;29.08;;;10.00;99.90;;;;;;6310461;22;19999;-71
2021/12/18 11:13:38;;;;;;;52.95;29.98;;;10.10;99.90;;;;;;6309309;22;20013;-71
2021/12/18 11:16:05;;;;;;;53.13;30.95;;;10.10;99.90;;;;;;6338092;22;20410;-72
2021/12/18 11:18:33;;;;;;;55.97;31.02;;;9.90;99.90;;;;;;6309861;22;20070;-71
2021/12/18 11:20:59;;;;;;;52.75;29.65;;;9.80;99.90;;;;;;6337875;22;19999;-71
2021/12/18 11:23:29;;;;;;;;;;;10.00;99.90;;;;;;6337818;22;20026;-70
2021/12/18 11:25:55;;;;;;;54.08;28.30;;;10.10;99.90;;;;;;6334957;22;19898;-71
2021/12/18 11:28:26;;;;;;;59.50;29.48;;;10.20;99.90;;;;;;6335114;22;20034;-71
2021/12/18 11:30:52;;;;;;;51.78;28.38;;;10.20;99.90;;;;;;6334055;22;20005;-71
2021/12/18 11:33:18;;;;;;;;;;;10.30;99.90;;;;;;6336314;22;19995;-71
2021/12/18 11:35:44;;;;;;;52.30;28.83;;;10.30;99.90;;;;;;6336893;22;19902;-70
2021/12/18 11:38:13;;;;;;;43.15;26.27;;;10.40;99.90;;;;;;6336978;22;20330;-70
2021/12/18 11:40:39;;;;;;;42.88;25.83;;;10.40;99.90;;;;;;6335646;22;20077;-71
2021/12/18 11:43:27;;;;;;;43.28;25.30;;;10.40;99.90;;;;;;6336421;22;20030;-71
2021/12/18 11:45:53;;;;;;;45.28;25.92;;;10.50;99.90;;;;;;6334425;22;20078;-70
2021/12/18 11:48:19;;;;;;;47.33;25.52;;;10.60;99.90;;;;;;6337122;22;20398;-71
2021/12/18 11:50:47;;;;;;;42.13;25.92;;;10.60;99.90;;;;;;6336158;22;20131;-70
2021/12/18 11:53:18;;;;;;;45.72;27.48;;;10.60;99.90;;;;;;6334911;22;20268;-72
2021/12/18 11:55:49;;;;;;;46.13;27.05;;;10.60;99.90;;;;;;6335214;22;19999;-71
2021/12/18 11:58:24;;;;;;;40.83;25.33;;;10.50;99.90;;;;;;6336127;22;19995;-70
2021/12/18 12:00:55;;;;;;;44.83;26.92;;;10.40;99.90;;;;;;6336015;22;20060;-71
2021/12/18 12:03:49;;;;;;;45.88;27.00;;;10.60;99.90;;;;;;6334902;22;20007;-71
2021/12/18 12:06:36;;;;;;;38.63;25.17;;;10.70;99.90;;;;;;6330721;22;19998;-74
2021/12/18 12:09:32;;;;;;;44.42;25.38;;;10.70;99.90;;;;;;6336528;22;20034;-70
2021/12/18 12:12:05;;;;;;;45.07;27.23;;;10.80;99.90;;;;;;6334590;22;20048;-70
2021/12/18 12:14:39;;;;;;;43.17;26.63;;;10.80;99.90;;;;;;6334366;22;20003;-70
2021/12/18 12:17:25;;;;;;;43.85;25.25;;;10.90;99.90;;;;;;6335897;22;20026;-71
2021/12/18 12:20:05;;;;;;;40.65;25.73;;;10.90;99.90;;;;;;6335247;22;20060;-71
2021/12/18 12:22:43;;;;;;;41.58;25.55;;;10.80;99.90;;;;;;6333725;22;20131;-72
2021/12/18 12:25:15;;;;;;;44.35;26.67;;;10.70;99.90;;;;;;6307032;22;20018;-72
2021/12/18 12:28:00;;;;;;;42.85;27.02;;;10.70;99.90;;;;;;6307209;22;20014;-71
2021/12/18 12:30:34;;;;;;;42.42;26.08;;;10.80;99.90;;;;;;6335084;22;19995;-70
2021/12/18 12:33:02;;;;;;;38.65;24.30;;;10.80;99.90;;;;;;6331876;22;20073;-70
2021/12/18 12:35:28;;;;;;;46.97;26.55;;;10.60;99.90;;;;;;6333080;22;20006;-71
2021/12/18 12:37:55;;;;;;;42.20;26.38;;;10.60;99.90;;;;;;6305070;22;20022;-70
2021/12/18 12:40:33;;;;;;;45.78;27.20;;;10.60;99.90;;;;;;6331979;22;20299;-70
2021/12/18 12:43:21;;;;;;;38.15;23.45;;;10.70;99.90;;;;;;6333457;22;20088;-70
2021/12/18 12:45:50;;;;;;;36.78;22.50;;;10.80;99.90;;;;;;6331016;22;20085;-73
2021/12/18 12:48:17;;;;;;;40.03;25.88;;;10.80;99.90;;;;;;6333129;22;20011;-71
2021/12/18 12:50:52;;;;;;;38.17;23.90;;;10.70;99.90;;;;;;6334505;22;20018;-70
2021/12/18 12:53:18;;;;;;;37.95;24.50;;;10.80;99.90;;;;;;6330500;22;20014;-69
2021/12/18 12:55:47;;;;;;;42.47;24.20;;;10.70;99.90;;;;;;6305808;22;20557;-71
2021/12/18 12:58:15;;;;;;;35.38;23.00;;;10.80;99.90;;;;;;6334489;22;19995;-72
2021/12/18 13:00:43;;;;;;;39.15;23.15;;;10.80;99.90;;;;;;6306640;22;20442;-72
2021/12/18 13:03:13;;;;;;;38.38;23.42;;;10.90;99.90;;;;;;6332091;22;20006;-71
2021/12/18 13:05:59;;;;;;;35.67;21.48;;;11.00;99.90;;;;;;6331981;22;20022;-70
2021/12/18 13:08:26;;;;;;;39.07;22.77;;;10.90;99.90;;;;;;6334833;22;20015;-71
2021/12/18 13:10:55;;;;;;;37.00;21.23;;;10.90;99.90;;;;;;6333233;22;20215;-70
2021/12/18 13:13:25;;;;;;;35.08;22.20;;;11.10;99.90;;;;;;6304684;22;20006;-71
2021/12/18 13:16:10;;;;;;;42.15;22.52;;;11.10;99.90;;;;;;6333282;22;20070;-72
2021/12/18 13:18:52;;;;;;;35.70;21.80;;;11.20;99.90;;;;;;6303884;22;20430;-72
2021/12/18 13:21:25;;;;;;;35.15;21.45;;;10.90;99.90;;;;;;6332288;22;20002;-72
2021/12/18 13:24:08;;;;;;;33.97;22.15;;;10.80;99.90;;;;;;6331519;22;20483;-71
2021/12/18 13:26:44;;;;;;;31.23;20.73;;;10.80;99.90;;;;;;6331867;22;20051;-71
2021/12/18 13:29:17;;;;;;;32.05;21.30;;;10.80;99.90;;;;;;6305718;22;20014;-71
2021/12/18 13:31:45;;;;;;;33.60;21.08;;;10.90;99.90;;;;;;6332512;22;20037;-71
2021/12/18 13:34:15;;;;;;;31.50;20.95;;;10.80;99.90;;;;;;6307129;22;20009;-71
2021/12/18 13:36:44;;;;;;;29.75;19.80;;;10.90;99.90;;;;;;6334368;22;19999;-71
2021/12/18 13:39:15;;;;;;;45.47;22.52;;;10.90;99.90;;;;;;6331758;22;20447;-72